createdAt,value
2019-01-11T00:01:42.524Z,5.97
2019-01-11T00:04:10.565Z,3.63
2019-01-11T00:06:38.488Z,4.20
2019-01-11T00:09:07.847Z,4.67
2019-01-11T00:11:35.921Z,4.77
2019-01-11T00:14:04.040Z,8.83
2019-01-11T00:16:31.901Z,7.80
2019-01-11T00:18:59.902Z,5.30
2019-01-11T00:21:27.852Z,6.43
2019-01-11T00:23:55.835Z,4.70
2019-01-11T00:26:23.918Z,4.17
2019-01-11T00:28:51.847Z,5.20
2019-01-11T00:31:20.063Z,3.00
2019-01-11T00:33:47.903Z,3.47
2019-01-11T00:36:15.802Z,3.10
2019-01-11T00:38:43.644Z,4.03
2019-01-11T00:41:11.485Z,4.30
2019-01-11T00:43:39.442Z,3.50
2019-01-11T00:46:07.446Z,4.23
2019-01-11T00:48:35.549Z,5.30
2019-01-11T00:51:03.795Z,3.43
2019-01-11T00:53:31.843Z,2.13
2019-01-11T00:55:59.627Z,4.83
2019-01-11T00:58:27.551Z,2.63
2019-01-11T01:00:55.594Z,2.63
2019-01-11T01:03:23.567Z,3.13
2019-01-11T01:05:52.800Z,2.93
2019-01-11T01:08:20.813Z,5.10
2019-01-11T01:10:49.076Z,3.20
2019-01-11T01:13:17.407Z,4.03
2019-01-11T01:15:45.356Z,3.50
2019-01-11T01:18:13.299Z,3.97
2019-01-11T01:20:41.216Z,3.00
2019-01-11T01:23:09.336Z,3.17
2019-01-11T01:25:37.236Z,3.70
2019-01-11T01:28:05.412Z,3.00
2019-01-11T01:30:33.578Z,2.93
2019-01-11T01:33:01.500Z,3.17
2019-01-11T01:35:29.395Z,3.47
2019-01-11T01:37:57.240Z,2.73
2019-01-11T01:40:25.142Z,3.50
2019-01-11T01:42:53.178Z,2.80
2019-01-11T01:45:21.399Z,4.63
2019-01-11T01:47:49.242Z,4.40
2019-01-11T01:50:17.125Z,3.73
2019-01-11T01:52:45.254Z,2.77
2019-01-11T01:55:14.568Z,3.10
2019-01-11T01:57:42.631Z,3.53
2019-01-11T02:00:13.229Z,3.20
2019-01-11T02:02:41.247Z,2.90
2019-01-11T02:05:09.883Z,2.90
2019-01-11T02:07:37.820Z,3.40
2019-01-11T02:10:07.452Z,2.83
2019-01-11T02:12:35.630Z,2.80
2019-01-11T02:15:04.724Z,3.10
2019-01-11T02:17:32.583Z,3.03
2019-01-11T02:20:00.562Z,5.20
2019-01-11T02:22:28.597Z,2.70
2019-01-11T02:24:56.720Z,4.13
2019-01-11T02:27:24.682Z,3.27
2019-01-11T02:29:52.704Z,3.40
2019-01-11T02:32:20.864Z,3.67
2019-01-11T02:34:48.735Z,5.37
2019-01-11T02:37:16.764Z,2.90
2019-01-11T02:39:44.866Z,3.40
2019-01-11T02:42:12.992Z,3.73
2019-01-11T02:44:40.996Z,2.87
2019-01-11T02:47:09.069Z,3.93
2019-01-11T02:49:40.324Z,5.80
2019-01-11T02:52:06.774Z,2.87
2019-01-11T02:54:34.653Z,2.80
2019-01-11T02:57:02.971Z,4.43
2019-01-11T02:59:30.922Z,2.83
2019-01-11T03:01:58.775Z,2.80
2019-01-11T03:04:26.644Z,3.23
2019-01-11T03:06:54.495Z,4.10
2019-01-11T03:09:22.402Z,4.47
2019-01-11T03:11:50.447Z,2.97
2019-01-11T03:14:18.443Z,3.90
2019-01-11T03:16:46.707Z,3.10
2019-01-11T03:19:14.727Z,3.73
2019-01-11T03:21:42.655Z,3.80
2019-01-11T03:24:10.500Z,4.77
2019-01-11T03:26:38.439Z,4.07
2019-01-11T03:29:06.496Z,3.17
2019-01-11T03:31:35.069Z,3.40
2019-01-11T03:34:03.060Z,3.23
2019-01-11T03:36:30.979Z,3.47
2019-01-11T03:38:58.915Z,2.90
2019-01-11T03:41:27.069Z,4.23
2019-01-11T03:43:54.873Z,3.23
2019-01-11T03:46:22.838Z,3.80
2019-01-11T03:48:50.814Z,3.40
2019-01-11T03:51:18.719Z,3.97
2019-01-11T03:53:46.675Z,3.10
2019-01-11T03:56:14.480Z,4.53
2019-01-11T03:58:42.527Z,3.53
2019-01-11T04:01:10.495Z,4.03
2019-01-11T04:03:38.603Z,4.93
2019-01-11T04:06:06.679Z,2.73
2019-01-11T04:08:34.706Z,3.37
2019-01-11T04:11:02.524Z,3.37
2019-01-11T04:13:30.844Z,4.00
2019-01-11T04:15:58.925Z,3.30
2019-01-11T04:18:34.751Z,3.83
2019-01-11T04:21:02.838Z,4.60
2019-01-11T04:23:30.825Z,3.40
2019-01-11T04:25:59.042Z,4.43
2019-01-11T04:28:27.172Z,3.40
2019-01-11T04:30:55.091Z,3.37
2019-01-11T04:33:23.127Z,3.27
2019-01-11T04:35:52.339Z,3.23
2019-01-11T04:38:20.331Z,3.57
2019-01-11T04:40:48.314Z,3.47
2019-01-11T04:43:16.336Z,4.50
2019-01-11T04:45:44.632Z,4.07
2019-01-11T04:48:12.657Z,5.40
2019-01-11T04:50:40.708Z,3.93
2019-01-11T04:53:08.804Z,4.33
2019-01-11T04:55:36.687Z,4.17
2019-01-11T04:58:04.766Z,3.20
2019-01-11T05:00:32.942Z,3.93
2019-01-11T05:03:01.044Z,3.37
2019-01-11T05:05:29.252Z,4.83
2019-01-11T05:07:57.329Z,3.00
2019-01-11T05:10:25.454Z,3.37
2019-01-11T05:12:53.547Z,3.30
2019-01-11T05:15:21.678Z,4.93
2019-01-11T05:17:49.597Z,5.40
2019-01-11T05:20:17.559Z,3.97
2019-01-11T05:22:45.891Z,4.57
2019-01-11T05:25:13.936Z,4.30
2019-01-11T05:27:41.980Z,3.90
2019-01-11T05:30:13.213Z,4.30
2019-01-11T05:32:41.080Z,3.53
2019-01-11T05:35:09.013Z,3.33
2019-01-11T05:37:37.744Z,3.57
2019-01-11T05:40:08.828Z,4.53
2019-01-11T05:42:36.831Z,3.37
2019-01-11T05:45:05.499Z,6.20
2019-01-11T05:47:33.357Z,6.93
2019-01-11T05:50:01.371Z,13.63
2019-01-11T05:52:29.311Z,12.37
2019-01-11T05:54:57.225Z,11.03
2019-01-11T05:57:25.127Z,9.63
2019-01-11T05:59:52.992Z,10.33
2019-01-11T06:02:20.977Z,9.40
2019-01-11T06:04:51.991Z,7.00
2019-01-11T06:07:37.261Z,7.83
2019-01-11T06:10:06.943Z,7.23
2019-01-11T06:12:34.868Z,8.00
2019-01-11T06:15:03.333Z,8.37
2019-01-11T06:17:31.223Z,8.47
2019-01-11T06:19:59.255Z,7.93
2019-01-11T06:22:27.312Z,6.53
2019-01-11T06:24:55.338Z,6.30
2019-01-11T06:27:23.365Z,5.87
2019-01-11T06:29:51.688Z,5.90
2019-01-11T06:32:19.574Z,5.83
2019-01-11T06:34:47.494Z,5.90
2019-01-11T06:37:15.588Z,5.37
2019-01-11T06:39:43.696Z,5.77
2019-01-11T06:42:29.703Z,8.13
2019-01-11T06:44:58.569Z,7.50
2019-01-11T06:47:27.082Z,9.10
2019-01-11T06:49:55.009Z,8.20
2019-01-11T06:52:23.106Z,7.17
2019-01-11T06:54:50.980Z,6.53
2019-01-11T06:57:18.943Z,4.63
2019-01-11T06:59:47.252Z,5.30
2019-01-11T07:02:15.250Z,4.90
2019-01-11T07:04:43.160Z,15.70
2019-01-11T07:07:11.023Z,31.93
2019-01-11T07:09:39.011Z,17.70
2019-01-11T07:12:07.080Z,11.40
2019-01-11T07:14:50.132Z,12.90
2019-01-11T07:17:17.973Z,10.23
2019-01-11T07:19:46.327Z,10.43
2019-01-11T07:22:14.130Z,9.00
2019-01-11T07:24:42.091Z,10.53
2019-01-11T07:27:10.075Z,11.20
2019-01-11T07:29:37.917Z,9.03
2019-01-11T07:32:06.028Z,10.77
2019-01-11T07:34:34.094Z,12.10
2019-01-11T07:37:03.079Z,10.70
2019-01-11T07:39:31.970Z,11.33
2019-01-11T07:42:00.052Z,14.10
2019-01-11T07:44:27.986Z,12.63
2019-01-11T07:46:56.516Z,11.87
2019-01-11T07:49:24.515Z,12.10
2019-01-11T07:51:53.082Z,14.43
2019-01-11T07:54:21.083Z,13.87
2019-01-11T07:56:49.001Z,13.77
2019-01-11T07:59:18.210Z,9.90
2019-01-11T08:01:46.310Z,13.57
2019-01-11T08:04:14.315Z,22.67
2019-01-11T08:06:42.209Z,30.40
2019-01-11T08:09:10.331Z,28.17
2019-01-11T08:11:38.247Z,20.97
2019-01-11T08:14:07.547Z,18.30
2019-01-11T08:16:35.495Z,16.90
2019-01-11T08:19:03.662Z,16.17
2019-01-11T08:21:31.661Z,17.03
2019-01-11T08:23:59.631Z,18.80
2019-01-11T08:26:27.663Z,18.87
2019-01-11T08:28:55.599Z,20.43
2019-01-11T08:31:23.512Z,31.10
2019-01-11T08:33:51.569Z,26.93
2019-01-11T08:36:19.476Z,22.83
2019-01-11T08:38:47.435Z,23.97
2019-01-11T08:41:15.379Z,23.97
2019-01-11T08:43:43.298Z,25.20
2019-01-11T08:46:11.294Z,17.00
2019-01-11T08:48:39.234Z,17.93
2019-01-11T08:51:07.155Z,19.30
2019-01-11T08:53:35.234Z,23.53
2019-01-11T08:56:08.303Z,21.57
2019-01-11T08:58:33.430Z,17.70
2019-01-11T09:01:01.434Z,17.33
2019-01-11T09:03:29.392Z,16.67
2019-01-11T09:05:57.552Z,13.93
2019-01-11T09:08:25.519Z,13.93
2019-01-11T09:10:54.919Z,10.13
2019-01-11T09:13:22.842Z,8.03
2019-01-11T09:15:50.868Z,9.70
2019-01-11T09:18:22.971Z,7.70
2019-01-11T09:20:52.442Z,8.47
2019-01-11T09:23:20.364Z,10.77
2019-01-11T09:25:48.271Z,10.27
2019-01-11T09:28:16.321Z,10.53
2019-01-11T09:30:44.292Z,9.50
2019-01-11T09:33:12.337Z,9.23
2019-01-11T09:35:40.349Z,8.37
2019-01-11T09:38:08.242Z,5.57
2019-01-11T09:40:36.126Z,4.93
2019-01-11T09:43:04.261Z,3.17
2019-01-11T09:45:32.254Z,3.37
2019-01-11T09:48:00.192Z,3.33
2019-01-11T09:50:28.271Z,2.80
2019-01-11T09:52:56.228Z,2.50
2019-01-11T09:55:24.391Z,3.23
2019-01-11T09:57:52.490Z,3.83
2019-01-11T10:00:22.723Z,4.60
2019-01-11T10:02:54.627Z,5.70
2019-01-11T10:05:22.522Z,7.43
2019-01-11T10:07:50.418Z,10.50
2019-01-11T10:10:18.586Z,6.10
2019-01-11T10:12:46.467Z,6.70
2019-01-11T10:15:18.391Z,8.23
2019-01-11T10:17:46.896Z,5.63
2019-01-11T10:20:14.874Z,3.90
2019-01-11T10:22:43.036Z,3.40
2019-01-11T10:25:11.167Z,3.67
2019-01-11T10:27:39.124Z,2.97
2019-01-11T10:30:10.520Z,2.77
2019-01-11T10:32:38.456Z,2.53
2019-01-11T10:35:06.618Z,5.60
2019-01-11T10:37:34.774Z,12.17
2019-01-11T10:40:03.727Z,13.13
2019-01-11T10:42:31.699Z,9.50
2019-01-11T10:45:00.264Z,12.87
2019-01-11T10:47:28.256Z,8.00
2019-01-11T10:49:56.310Z,8.80
2019-01-11T10:52:24.260Z,11.20
2019-01-11T10:54:52.215Z,7.83
2019-01-11T10:57:20.070Z,6.67
2019-01-11T10:59:48.064Z,8.47
2019-01-11T11:02:16.009Z,9.90
2019-01-11T11:04:44.085Z,6.83
2019-01-11T11:07:11.868Z,6.17
2019-01-11T11:09:39.783Z,4.03
2019-01-11T11:12:07.953Z,4.00
2019-01-11T11:14:56.421Z,3.87
2019-01-11T11:17:24.590Z,2.83
2019-01-11T11:19:52.506Z,2.67
2019-01-11T11:22:20.378Z,2.63
2019-01-11T11:24:48.346Z,5.63
2019-01-11T11:27:16.279Z,3.17
2019-01-11T11:29:44.464Z,2.10
2019-01-11T11:32:12.994Z,2.30
2019-01-11T11:34:43.389Z,2.53
2019-01-11T11:37:13.088Z,3.43
2019-01-11T11:39:41.098Z,6.13
2019-01-11T11:42:08.937Z,4.70
2019-01-11T11:44:36.883Z,5.20
2019-01-11T11:47:04.829Z,4.50
2019-01-11T11:49:32.718Z,3.77
2019-01-11T11:52:00.591Z,2.50
2019-01-11T11:54:28.463Z,3.90
2019-01-11T11:56:56.420Z,17.57
2019-01-11T11:59:24.441Z,6.17
2019-01-11T12:01:52.508Z,7.97
2019-01-11T12:04:20.708Z,15.73
2019-01-11T12:06:48.710Z,7.23
2019-01-11T12:09:16.755Z,3.30
2019-01-11T12:11:44.726Z,11.70
2019-01-11T12:14:12.592Z,10.50
2019-01-11T12:16:40.759Z,9.67
2019-01-11T12:19:08.741Z,11.43
2019-01-11T12:21:36.795Z,9.73
2019-01-11T12:24:04.706Z,5.33
2019-01-11T12:26:32.603Z,4.10
2019-01-11T12:29:00.511Z,4.37
2019-01-11T12:31:28.535Z,2.80
2019-01-11T12:33:56.496Z,3.53
2019-01-11T12:36:24.447Z,4.73
2019-01-11T12:38:52.415Z,4.80
2019-01-11T12:41:20.357Z,5.53
2019-01-11T12:43:48.327Z,9.30
2019-01-11T12:46:16.168Z,9.43
2019-01-11T12:48:44.148Z,11.90
2019-01-11T12:51:12.155Z,8.70
2019-01-11T12:53:40.114Z,16.80
2019-01-11T12:56:08.173Z,15.10
2019-01-11T12:58:36.172Z,27.00
2019-01-11T13:01:05.226Z,32.97
2019-01-11T13:03:33.343Z,21.47
2019-01-11T13:06:01.412Z,31.83
2019-01-11T13:08:29.323Z,19.37
2019-01-11T13:10:57.384Z,42.93
2019-01-11T13:13:25.353Z,28.10
2019-01-11T13:15:55.776Z,13.60
2019-01-11T13:18:23.636Z,25.70
2019-01-11T13:20:52.861Z,21.00
2019-01-11T13:23:20.849Z,24.00
2019-01-11T13:25:48.856Z,69.17
2019-01-11T13:28:16.886Z,38.57
2019-01-11T13:30:44.895Z,12.33
2019-01-11T13:33:13.112Z,8.23
2019-01-11T13:35:41.187Z,3.77
2019-01-11T13:38:09.197Z,10.83
2019-01-11T13:40:37.140Z,34.57
2019-01-11T13:43:05.134Z,301.70
2019-01-11T13:45:33.182Z,201.87
2019-01-11T13:48:01.098Z,187.60
2019-01-11T13:50:36.495Z,417.67
2019-01-11T13:53:05.699Z,532.90
2019-01-11T13:55:33.686Z,563.03
2019-01-11T13:58:01.778Z,555.40
2019-01-11T14:00:30.131Z,796.30
2019-01-11T14:02:58.268Z,576.00
2019-01-11T14:05:26.450Z,735.83
2019-01-11T14:07:54.303Z,869.57
2019-01-11T14:10:22.274Z,790.20
2019-01-11T14:12:50.167Z,374.43
2019-01-11T14:15:41.073Z,398.90
2019-01-11T14:18:08.976Z,368.93
2019-01-11T14:20:36.845Z,528.70
2019-01-11T14:23:04.968Z,334.23
2019-01-11T14:25:32.899Z,421.03
2019-01-11T14:28:00.818Z,536.87
2019-01-11T14:30:29.170Z,617.07
2019-01-11T14:32:57.024Z,900.80
2019-01-11T14:35:25.068Z,648.83
2019-01-11T14:37:53.031Z,235.70
2019-01-11T14:40:20.963Z,89.93
2019-01-11T14:42:48.924Z,26.87
2019-01-11T14:45:17.248Z,11.57
2019-01-11T14:47:45.404Z,7.33
2019-01-11T14:50:15.340Z,8.97
2019-01-11T14:52:43.295Z,7.67
2019-01-11T14:55:11.419Z,11.20
2019-01-11T14:57:39.947Z,7.43
2019-01-11T15:00:11.173Z,7.10
2019-01-11T15:02:39.079Z,12.03
2019-01-11T15:05:09.424Z,11.37
2019-01-11T15:07:37.485Z,11.17
2019-01-11T15:10:07.251Z,9.03
2019-01-11T15:12:35.148Z,7.20
2019-01-11T15:15:29.604Z,11.47
2019-01-11T15:17:57.126Z,9.77
2019-01-11T15:20:25.260Z,9.07
2019-01-11T15:22:53.164Z,9.23
2019-01-11T15:25:21.131Z,8.57
2019-01-11T15:27:49.023Z,8.60
2019-01-11T15:30:18.758Z,6.97
2019-01-11T15:32:46.979Z,7.97
2019-01-11T15:35:15.326Z,11.20
2019-01-11T15:37:43.097Z,11.50
2019-01-11T15:40:17.547Z,6.13
2019-01-11T15:42:45.542Z,5.93
2019-01-11T15:45:13.511Z,6.10
2019-01-11T15:47:41.503Z,9.03
2019-01-11T15:50:11.421Z,6.90
2019-01-11T15:52:39.413Z,6.90
2019-01-11T15:55:09.224Z,9.17
2019-01-11T15:57:43.519Z,9.43
2019-01-11T16:00:19.879Z,10.97
2019-01-11T16:02:48.021Z,9.23
2019-01-11T16:05:16.013Z,8.03
2019-01-11T16:07:44.334Z,10.53
2019-01-11T16:10:15.319Z,15.33
2019-01-11T16:12:53.027Z,13.53
2019-01-11T16:15:57.737Z,8.97
2019-01-11T16:18:28.008Z,14.00
2019-01-11T16:20:56.119Z,14.80
2019-01-11T16:23:23.967Z,14.50
2019-01-11T16:25:52.735Z,11.00
2019-01-11T16:28:20.714Z,9.33
2019-01-11T16:30:48.707Z,8.60
2019-01-11T16:33:16.574Z,7.27
2019-01-11T16:35:44.536Z,11.07
2019-01-11T16:38:12.615Z,7.77
2019-01-11T16:40:40.758Z,5.50
2019-01-11T16:43:08.620Z,8.03
2019-01-11T16:45:36.684Z,8.70
2019-01-11T16:48:04.661Z,6.40
2019-01-11T16:50:32.575Z,7.93
2019-01-11T16:53:00.572Z,6.87
2019-01-11T16:55:28.380Z,11.10
2019-01-11T16:57:56.390Z,12.20
2019-01-11T17:00:24.860Z,16.10
2019-01-11T17:02:52.751Z,21.90
2019-01-11T17:05:20.796Z,25.00
2019-01-11T17:07:48.567Z,22.77
2019-01-11T17:10:16.635Z,23.53
2019-01-11T17:12:44.740Z,26.57
2019-01-11T17:15:49.709Z,33.60
2019-01-11T17:18:16.210Z,64.77
2019-01-11T17:20:44.167Z,60.27
2019-01-11T17:23:12.280Z,42.63
2019-01-11T17:25:40.194Z,30.87
2019-01-11T17:28:08.140Z,40.53
2019-01-11T17:30:36.067Z,51.27
2019-01-11T17:33:03.978Z,38.60
2019-01-11T17:35:31.866Z,26.57
2019-01-11T17:37:59.699Z,19.87
2019-01-11T17:40:27.940Z,13.57
2019-01-11T17:42:55.795Z,17.80
2019-01-11T17:45:24.071Z,41.13
2019-01-11T17:47:52.147Z,37.30
2019-01-11T17:50:20.178Z,37.30
2019-01-11T17:52:48.126Z,32.40
2019-01-11T17:55:16.131Z,27.30
2019-01-11T17:57:44.131Z,33.07
2019-01-11T18:00:14.819Z,26.70
2019-01-11T18:02:42.959Z,25.23
2019-01-11T18:05:11.653Z,19.27
2019-01-11T18:07:39.790Z,24.23
2019-01-11T18:10:08.981Z,21.37
2019-01-11T18:12:37.271Z,18.53
2019-01-11T18:15:38.347Z,17.80
2019-01-11T18:18:05.800Z,20.27
2019-01-11T18:20:33.792Z,29.27
2019-01-11T18:23:06.882Z,22.90
2019-01-11T18:25:31.532Z,24.03
2019-01-11T18:27:59.632Z,17.50
2019-01-11T18:30:28.826Z,17.63
2019-01-11T18:32:56.643Z,22.40
2019-01-11T18:35:51.073Z,31.53
2019-01-11T18:38:18.623Z,26.73
2019-01-11T18:40:46.696Z,20.97
2019-01-11T18:43:14.880Z,20.40
2019-01-11T18:45:42.920Z,25.67
2019-01-11T18:48:10.879Z,25.43
2019-01-11T18:50:38.680Z,18.53
2019-01-11T18:53:13.623Z,18.30
2019-01-11T18:55:43.631Z,18.30
2019-01-11T18:58:14.025Z,20.70
2019-01-11T19:00:46.461Z,20.57
2019-01-11T19:03:14.401Z,22.07
2019-01-11T19:05:45.875Z,25.10
2019-01-11T19:08:17.740Z,30.67
2019-01-11T19:10:49.828Z,22.47
2019-01-11T19:13:21.670Z,32.33
2019-01-11T19:16:14.032Z,35.27
2019-01-11T19:18:45.105Z,22.93
2019-01-11T19:21:13.454Z,17.97
2019-01-11T19:23:45.347Z,15.63
2019-01-11T19:26:13.377Z,15.67
2019-01-11T19:28:41.507Z,18.60
2019-01-11T19:31:09.444Z,20.63
2019-01-11T19:33:37.466Z,19.30
2019-01-11T19:36:05.531Z,18.73
2019-01-11T19:38:33.832Z,17.77
2019-01-11T19:41:01.915Z,23.37
2019-01-11T19:43:29.845Z,21.83
2019-01-11T19:45:57.958Z,18.40
2019-01-11T19:48:25.884Z,14.83
2019-01-11T19:50:55.531Z,9.53
2019-01-11T19:53:27.506Z,11.47
2019-01-11T19:55:58.820Z,14.17
2019-01-11T19:58:24.440Z,17.83
2019-01-11T20:00:53.844Z,17.97
2019-01-11T20:03:21.952Z,20.33
2019-01-11T20:05:49.978Z,21.33
2019-01-11T20:08:18.089Z,17.00
2019-01-11T20:10:46.190Z,15.13
2019-01-11T20:13:14.266Z,15.33
2019-01-11T20:16:09.124Z,12.90
2019-01-11T20:18:35.881Z,14.13
2019-01-11T20:21:05.099Z,15.97
2019-01-11T20:23:36.603Z,20.40
2019-01-11T20:26:03.214Z,25.57
2019-01-11T20:28:31.115Z,19.57
2019-01-11T20:30:59.015Z,27.13
2019-01-11T20:33:26.866Z,36.73
2019-01-11T20:35:55.166Z,30.97
2019-01-11T20:38:23.172Z,17.17
2019-01-11T20:40:51.244Z,16.83
2019-01-11T20:43:19.119Z,17.83
2019-01-11T20:45:47.062Z,17.33
2019-01-11T20:48:15.104Z,22.17
2019-01-11T20:50:43.032Z,19.83
2019-01-11T20:53:10.872Z,19.47
2019-01-11T20:55:38.871Z,15.80
2019-01-11T20:58:06.925Z,13.20
2019-01-11T21:00:35.471Z,17.63
2019-01-11T21:03:05.566Z,18.90
2019-01-11T21:05:33.763Z,17.07
2019-01-11T21:08:01.598Z,17.97
2019-01-11T21:10:29.723Z,16.80
2019-01-11T21:12:57.635Z,21.27
2019-01-11T21:16:15.104Z,24.93
2019-01-11T21:19:07.829Z,23.90
2019-01-11T21:21:35.654Z,14.20
2019-01-11T21:24:03.751Z,18.70
2019-01-11T21:26:54.004Z,21.00
2019-01-11T21:29:22.020Z,19.00
2019-01-11T21:31:49.883Z,14.97
2019-01-11T21:34:17.807Z,15.93
2019-01-11T21:36:45.832Z,26.53
2019-01-11T21:39:13.923Z,20.50
2019-01-11T21:41:41.940Z,15.10
2019-01-11T21:44:09.839Z,22.27
2019-01-11T21:46:37.763Z,16.70
2019-01-11T21:49:05.634Z,20.50
2019-01-11T21:51:33.503Z,24.97
2019-01-11T21:54:01.415Z,18.67
2019-01-11T21:56:29.631Z,15.73
2019-01-11T21:58:57.534Z,12.17
2019-01-11T22:01:25.461Z,12.50
2019-01-11T22:03:54.724Z,11.73
2019-01-11T22:06:22.763Z,11.67
2019-01-11T22:08:50.647Z,12.07
2019-01-11T22:11:26.359Z,14.73
2019-01-11T22:13:54.165Z,17.03
2019-01-11T22:16:42.550Z,14.83
2019-01-11T22:19:10.388Z,10.40
2019-01-11T22:21:38.274Z,13.17
2019-01-11T22:24:06.282Z,13.13
2019-01-11T22:26:34.192Z,13.17
2019-01-11T22:29:02.020Z,10.67
2019-01-11T22:31:30.063Z,13.60
2019-01-11T22:33:58.097Z,19.17
2019-01-11T22:36:26.062Z,16.10
2019-01-11T22:38:54.139Z,11.37
2019-01-11T22:41:22.115Z,9.70
2019-01-11T22:43:50.007Z,8.97
2019-01-11T22:46:17.928Z,10.47
2019-01-11T22:48:45.884Z,7.87
2019-01-11T22:51:13.863Z,8.33
2019-01-11T22:53:41.684Z,7.07
2019-01-11T22:56:09.838Z,7.43
2019-01-11T22:58:37.903Z,6.53
2019-01-11T23:01:33.329Z,6.40
2019-01-11T23:04:01.127Z,7.17
2019-01-11T23:07:12.764Z,7.80
2019-01-11T23:10:37.123Z,7.53
2019-01-11T23:13:15.667Z,6.20
2019-01-11T23:15:47.363Z,5.00
2019-01-11T23:18:18.375Z,5.60
2019-01-11T23:20:48.390Z,5.57
2019-01-11T23:23:17.254Z,4.90
2019-01-11T23:25:45.460Z,6.20
2019-01-11T23:28:13.459Z,5.40
2019-01-11T23:30:41.411Z,6.77
2019-01-11T23:33:09.362Z,7.13
2019-01-11T23:35:37.432Z,7.13
2019-01-11T23:38:05.607Z,6.63
2019-01-11T23:40:33.788Z,6.57
2019-01-11T23:43:01.841Z,5.70
2019-01-11T23:45:29.943Z,7.07
2019-01-11T23:47:58.980Z,6.77
2019-01-11T23:50:26.850Z,10.00
2019-01-11T23:52:55.444Z,6.27
2019-01-11T23:55:23.523Z,5.90
2019-01-11T23:57:51.389Z,6.80
